Time;durP1;ratioP1;P1;durP2;ratioP2;P2;SDS_P1;SDS_P2;PMS_P1;PMS_P2;Temp;Humidity;BMP_temperature;BMP_pressure;BME280_temperature;BME280_humidity;BME280_pressure;Samples;Min_cycle;Max_cycle;Signal;HPM_P1;HPM_P2
2021/01/22 00:00:44;;;;;;;31.65;19.58;;;;;;;4.86;100.00;97337.25;5113709;28;20296;-75
2021/01/22 00:03:09;;;;;;;;;;;;;;;4.83;100.00;97331.56;5115343;28;20023;-74
2021/01/22 00:05:35;;;;;;;30.08;19.20;;;;;;;4.79;100.00;97322.38;5113271;28;19912;-75
2021/01/22 00:08:00;;;;;;;;;;;;;;;4.93;100.00;97323.41;5114777;28;20081;-74
2021/01/22 00:10:25;;;;;;;32.80;18.42;;;;;;;4.83;100.00;97313.41;5114622;28;20429;-74
2021/01/22 00:12:51;;;;;;;;;;;;;;;4.86;100.00;97320.16;5113590;28;20024;-74
2021/01/22 00:15:16;;;;;;;33.65;17.65;;;;;;;4.74;100.00;97298.00;5113099;28;19919;-74
2021/01/22 00:17:42;;;;;;;31.85;17.77;;;;;;;4.85;100.00;97326.69;5113184;28;20035;-74
2021/01/22 00:20:09;;;;;;;35.35;20.83;;;;;;;4.74;100.00;97287.97;5114375;28;20027;-74
2021/01/22 00:22:35;;;;;;;32.22;18.98;;;;;;;4.83;100.00;97315.31;5113650;28;20024;-74
2021/01/22 00:25:00;;;;;;;37.35;20.40;;;;;;;4.85;100.00;97311.22;5114700;28;20027;-74
2021/01/22 00:27:25;;;;;;;42.25;22.17;;;;;;;4.84;100.00;97314.22;5114464;28;20031;-74
2021/01/22 00:29:51;;;;;;;33.58;19.40;;;;;;;4.73;100.00;97301.81;5113746;28;20039;-74
2021/01/22 00:32:16;;;;;;;31.92;17.60;;;;;;;4.73;100.00;97302.59;5113890;28;20022;-74
2021/01/22 00:34:41;;;;;;;;;;;;;;;4.78;100.00;97288.25;5114279;28;20385;-74
2021/01/22 00:37:07;;;;;;;27.27;17.98;;;;;;;4.72;100.00;97300.16;5113861;28;19912;-75
2021/01/22 00:39:32;;;;;;;;;;;;;;;4.77;100.00;97292.84;5114350;27;20024;-74
2021/01/22 00:41:57;;;;;;;32.65;16.58;;;;;;;4.80;100.00;97286.06;5113789;28;19912;-76
2021/01/22 00:44:23;;;;;;;;;;;;;;;4.79;100.00;97287.16;5113183;28;20028;-74
2021/01/22 00:46:48;;;;;;;26.13;15.77;;;;;;;4.75;100.00;97280.66;5106426;28;20273;-74
2021/01/22 00:49:13;;;;;;;21.90;13.63;;;;;;;4.63;100.00;97270.13;5113896;28;20058;-75
2021/01/22 00:51:39;;;;;;;25.55;14.23;;;;;;;4.68;100.00;97272.00;5112616;28;20081;-74
2021/01/22 00:54:05;;;;;;;22.40;13.23;;;;;;;4.54;100.00;97265.56;5113874;28;20038;-74
2021/01/22 00:56:30;;;;;;;;;;;;;;;4.67;100.00;97271.19;5112938;28;20030;-74
2021/01/22 00:58:55;;;;;;;26.42;15.45;;;;;;;4.63;100.00;97264.72;5112613;28;20003;-73
2021/01/22 01:01:20;;;;;;;;;;;;;;;4.69;100.00;97257.38;5112566;28;20023;-74
2021/01/22 01:03:46;;;;;;;17.63;11.30;;;;;;;4.76;100.00;97252.50;5113698;28;20448;-74
2021/01/22 01:06:11;;;;;;;;;;;;;;;4.85;100.00;97245.41;5113955;28;20027;-74
2021/01/22 01:08:36;;;;;;;17.45;11.60;;;;;;;4.84;100.00;97236.47;5111937;28;19915;-74
2021/01/22 01:11:02;;;;;;;;;;;;;;;4.84;100.00;97238.38;5113652;28;20106;-75
2021/01/22 01:13:27;;;;;;;21.00;13.38;;;;;;;4.85;100.00;97234.59;5112049;28;19912;-74
2021/01/22 01:15:53;;;;;;;24.17;15.98;;;;;;;4.88;100.00;97220.50;5113150;28;20023;-74
2021/01/22 01:18:18;;;;;;;25.00;15.93;;;;;;;4.84;100.00;97222.13;5113053;28;20027;-74
2021/01/22 01:20:44;;;;;;;23.35;17.02;;;;;;;4.93;100.00;97215.03;5111691;28;20095;-74
2021/01/22 01:23:14;;;;;;;28.88;18.40;;;;;;;4.88;100.00;97200.72;5111225;28;20383;-74
2021/01/22 01:25:42;;;;;;;28.70;17.77;;;;;;;4.86;100.00;97200.97;5111720;28;20040;-75
2021/01/22 01:28:20;;;;;;;38.05;18.67;;;;;;;4.80;100.00;97188.53;5113042;28;20472;-74
2021/01/22 01:30:45;;;;;;;29.25;20.25;;;;;;;4.85;100.00;97199.38;5111384;28;20395;-74
2021/01/22 01:33:11;;;;;;;31.30;19.15;;;;;;;4.79;100.00;97187.72;5112700;27;20024;-73
2021/01/22 01:35:36;;;;;;;26.92;18.08;;;;;;;4.74;100.00;97184.22;5111237;28;20020;-74
2021/01/22 01:38:02;;;;;;;33.30;20.98;;;;;;;4.82;100.00;97189.09;5111218;28;20065;-74
2021/01/22 01:40:28;;;;;;;32.42;20.63;;;;;;;4.68;100.00;97171.78;5111674;28;20106;-74
2021/01/22 01:42:53;;;;;;;29.00;18.98;;;;;;;4.69;100.00;97176.94;5113001;28;20147;-74
2021/01/22 01:45:19;;;;;;;35.80;22.17;;;;;;;4.71;100.00;97182.06;5111264;28;20498;-75
2021/01/22 01:47:44;;;;;;;;;;;;;;;4.78;100.00;97185.31;5112691;28;20049;-76
2021/01/22 01:50:11;;;;;;;31.17;21.70;;;;;;;4.67;100.00;97184.53;5111459;28;19920;-74
2021/01/22 01:52:37;;;;;;;34.72;22.48;;;;;;;4.69;100.00;97181.56;5112765;28;20476;-74
2021/01/22 01:55:04;;;;;;;41.03;24.88;;;;;;;4.60;100.00;97178.59;5111828;28;20053;-74
2021/01/22 01:57:29;;;;;;;38.45;21.95;;;;;;;4.53;100.00;97167.25;5110503;28;20035;-74
2021/01/22 01:59:55;;;;;;;34.20;21.10;;;;;;;4.64;100.00;97174.25;5112548;28;20032;-75
2021/01/22 02:02:21;;;;;;;31.80;22.85;;;;;;;4.58;100.00;97158.28;5111304;28;20024;-76
2021/01/22 02:04:47;;;;;;;39.10;20.88;;;;;;;4.69;100.00;97165.31;5111309;28;20023;-74
2021/01/22 02:07:12;;;;;;;27.73;18.48;;;;;;;4.66;100.00;97160.44;5112255;28;20027;-74
2021/01/22 02:09:38;;;;;;;30.80;18.70;;;;;;;4.57;100.00;97156.69;5110912;28;20085;-76
2021/01/22 02:12:04;;;;;;;;;;;;;;;4.66;100.00;97146.91;5112932;28;20384;-74
2021/01/22 02:14:30;;;;;;;35.25;19.85;;;;;;;4.70;100.00;97148.75;5110445;28;19912;-77
2021/01/22 02:16:58;;;;;;;31.02;18.67;;;;;;;4.65;100.00;97131.72;5111483;28;20027;-74
2021/01/22 02:19:38;;;;;;;35.83;19.33;;;;;;;4.68;100.00;97131.97;5110347;28;20084;-74
2021/01/22 02:22:04;;;;;;;38.80;21.27;;;;;;;4.60;100.00;97132.56;5110916;28;20469;-74
2021/01/22 02:24:31;;;;;;;31.50;20.02;;;;;;;4.60;100.00;97123.63;5110893;28;20062;-74
2021/01/22 02:27:01;;;;;;;46.85;21.77;;;;;;;4.53;100.00;97113.09;5112463;27;20125;-74
2021/01/22 02:29:27;;;;;;;39.92;20.15;;;;;;;4.78;100.00;97131.94;5112072;28;20544;-74
2021/01/22 02:31:55;;;;;;;34.47;20.77;;;;;;;4.75;100.00;97128.97;5111253;28;20786;-75
2021/01/22 02:34:24;;;;;;;40.45;18.95;;;;;;;4.70;100.00;97128.97;5111887;28;20160;-75
2021/01/22 02:36:51;;;;;;;41.15;20.35;;;;;;;4.67;100.00;97116.81;5112184;28;20020;-74
2021/01/22 02:39:20;;;;;;;39.15;21.60;;;;;;;4.73;100.00;97129.25;5111936;28;20023;-74
2021/01/22 02:41:47;;;;;;;36.97;19.20;;;;;;;4.63;100.00;97098.72;5112104;28;20239;-74
2021/01/22 02:44:15;;;;;;;34.00;20.52;;;;;;;4.70;100.00;97115.44;5111823;28;20062;-74
2021/01/22 02:46:41;;;;;;;40.83;19.48;;;;;;;4.66;100.00;97122.53;5111589;28;20041;-74
2021/01/22 02:49:07;;;;;;;34.30;20.05;;;;;;;4.66;100.00;97098.16;5110510;28;20074;-76
2021/01/22 02:51:32;;;;;;;34.03;20.40;;;;;;;4.71;100.00;97114.38;5110415;28;20168;-74
2021/01/22 02:53:57;;;;;;;;;;;;;;;4.70;100.00;97104.59;5112167;28;20024;-74
2021/01/22 02:56:32;;;;;;;38.63;19.73;;;;;;;4.69;100.00;97094.88;5111077;28;19919;-74
2021/01/22 02:59:37;;;;;;;32.63;18.48;;;;;;;4.66;100.00;97096.25;5111273;28;20031;-74
2021/01/22 03:02:08;;;;;;;37.80;20.48;;;;;;;4.62;100.00;97091.66;5111889;28;20024;-74
2021/01/22 03:04:36;;;;;;;31.90;20.65;;;;;;;4.53;100.00;97082.50;5112212;28;20107;-74
2021/01/22 03:07:03;;;;;;;38.75;21.38;;;;;;;4.54;100.00;97076.00;5112171;28;20034;-74
2021/01/22 03:09:31;;;;;;;32.75;22.33;;;;;;;4.57;100.00;97070.84;5112392;28;20028;-74
2021/01/22 03:11:57;;;;;;;35.83;21.02;;;;;;;4.58;100.00;97080.56;5111024;28;20019;-73
2021/01/22 03:14:24;;;;;;;47.40;21.60;;;;;;;4.57;100.00;97075.44;5110908;28;20046;-74
2021/01/22 03:16:50;;;;;;;38.75;20.95;;;;;;;4.59;100.00;97089.50;5111236;28;20028;-74
2021/01/22 03:19:15;;;;;;;35.58;23.20;;;;;;;4.61;100.00;97088.13;5111070;28;20027;-75
2021/01/22 03:21:41;;;;;;;37.47;20.27;;;;;;;4.69;100.00;97062.38;5112161;28;20076;-74
2021/01/22 03:24:07;;;;;;;33.97;19.67;;;;;;;4.70;100.00;97077.53;5111072;28;20106;-75
2021/01/22 03:26:32;;;;;;;42.63;22.20;;;;;;;4.68;100.00;97058.88;5113332;28;20151;-78
2021/01/22 03:28:57;;;;;;;;;;;;;;;4.71;100.00;97054.78;5113531;28;20031;-75
2021/01/22 03:31:23;;;;;;;34.25;22.35;;;;;;;4.67;100.00;97048.28;5113441;28;19911;-74
2021/01/22 03:33:48;;;;;;;35.25;19.50;;;;;;;4.72;100.00;97051.00;5113065;28;20049;-74
2021/01/22 03:36:14;;;;;;;;;;;;;;;4.80;100.00;97042.25;5116407;28;20499;-74
2021/01/22 03:38:40;;;;;;;32.67;20.98;;;;;;;4.83;100.00;97028.16;5115701;28;19952;-75
2021/01/22 03:41:05;;;;;;;30.63;17.83;;;;;;;4.80;100.00;97031.41;5117160;28;20116;-75
2021/01/22 03:43:30;;;;;;;;;;;;;;;4.83;100.00;97022.72;5118935;28;20016;-75
2021/01/22 03:45:56;;;;;;;28.30;16.63;;;;;;;4.86;100.00;97025.69;5117792;28;19978;-75
2021/01/22 03:48:21;;;;;;;28.98;17.67;;;;;;;4.86;100.00;97014.03;5117222;28;20020;-77
2021/01/22 03:50:48;;;;;;;25.00;17.13;;;;;;;4.85;100.00;97007.03;5111126;28;20032;-74
2021/01/22 03:53:13;;;;;;;29.45;19.45;;;;;;;4.87;100.00;97021.09;5111302;28;20048;-74
2021/01/22 03:55:39;;;;;;;37.97;17.05;;;;;;;4.84;100.00;97005.41;5110207;28;20039;-75
2021/01/22 03:58:04;;;;;;;28.40;17.80;;;;;;;4.90;100.00;97020.53;5109770;28;20051;-75
2021/01/22 04:00:33;;;;;;;22.85;16.55;;;;;;;4.96;100.00;97024.81;5110738;28;20536;-77
2021/01/22 04:02:58;;;;;;;24.80;16.92;;;;;;;4.95;100.00;97014.28;5110068;28;20489;-78
2021/01/22 04:05:24;;;;;;;26.55;17.45;;;;;;;4.96;100.00;97024.00;5092662;28;20031;-75
2021/01/22 04:07:49;;;;;;;;;;;;;;;5.04;100.00;97029.66;5110104;28;20377;-75
2021/01/22 04:10:15;;;;;;;27.63;17.45;;;;;;;4.99;100.00;97028.84;5109505;28;20010;-75
2021/01/22 04:12:40;;;;;;;;;;;;;;;5.02;100.00;97033.72;5111946;28;20484;-74
2021/01/22 04:15:06;;;;;;;21.83;15.30;;;;;;;5.06;100.00;97034.78;5113855;28;19915;-74
2021/01/22 04:17:32;;;;;;;24.23;15.77;;;;;;;5.11;100.00;97057.22;5113686;28;20488;-74
2021/01/22 04:19:58;;;;;;;28.00;15.65;;;;;;;5.11;100.00;97049.09;5112675;28;20081;-75
2021/01/22 04:22:23;;;;;;;24.23;15.57;;;;;;;5.17;100.00;97064.22;5112596;28;20032;-74
2021/01/22 04:24:49;;;;;;;;;;;;;;;5.16;100.00;97059.09;5112988;28;20039;-73
2021/01/22 04:27:14;;;;;;;20.65;13.80;;;;;;;5.23;100.00;97063.06;5113582;28;19916;-74
2021/01/22 04:29:39;;;;;;;;;;;;;;;5.26;100.00;97050.88;5112435;28;20484;-74
2021/01/22 04:32:06;;;;;;;32.55;14.07;;;;;;;5.40;100.00;97051.84;5112784;28;19915;-74
2021/01/22 04:34:32;;;;;;;26.70;16.08;;;;;;;5.49;100.00;97043.88;5112311;28;20551;-73
2021/01/22 04:36:57;;;;;;;26.25;14.05;;;;;;;5.69;100.00;97049.13;5114242;28;20107;-74
2021/01/22 04:39:22;;;;;;;14.73;7.35;;;;;;;6.39;100.00;97037.50;5112410;28;20118;-75
2021/01/22 04:41:48;;;;;;;8.70;4.93;;;;;;;6.87;100.00;97034.66;5114172;28;20032;-75
2021/01/22 04:44:14;;;;;;;;;;;;;;;7.06;100.00;97040.91;5114010;28;20480;-74
2021/01/22 04:46:40;;;;;;;5.43;3.33;;;;;;;7.27;100.00;97046.84;5113522;28;19915;-74
2021/01/22 04:49:06;;;;;;;4.20;2.92;;;;;;;7.54;100.00;97036.06;5113916;28;20067;-74
2021/01/22 04:51:35;;;;;;;4.95;2.83;;;;;;;7.78;100.00;97044.88;5113360;28;20031;-74
2021/01/22 04:54:08;;;;;;;4.63;1.98;;;;;;;7.99;99.23;97048.84;5113093;28;20036;-74
2021/01/22 04:56:37;;;;;;;2.88;2.25;;;;;;;7.92;99.75;97053.06;5113544;28;20049;-76
2021/01/22 04:59:07;;;;;;;2.60;2.13;;;;;;;7.90;99.24;97030.78;5112934;28;20039;-74
2021/01/22 05:01:33;;;;;;;4.28;1.80;;;;;;;7.97;99.19;97028.47;5111172;28;20047;-76
2021/01/22 05:03:59;;;;;;;3.58;1.83;;;;;;;7.95;99.30;97036.94;5105841;28;20103;-74
2021/01/22 05:06:24;;;;;;;5.55;2.58;;;;;;;7.94;99.74;97048.13;5112475;28;20160;-74
2021/01/22 05:08:52;;;;;;;;;;;;;;;7.89;99.96;97040.06;5113431;28;20028;-75
2021/01/22 05:11:17;;;;;;;7.57;2.28;;;;;;;7.84;99.80;97031.97;5112814;28;20380;-74
2021/01/22 05:13:43;;;;;;;2.67;1.70;;;;;;;7.86;100.00;97048.84;5111642;28;20050;-74
2021/01/22 05:16:12;;;;;;;2.63;1.52;;;;;;;7.81;100.00;97036.13;5113279;28;20058;-74
2021/01/22 05:18:38;;;;;;;5.53;1.38;;;;;;;7.75;100.00;97037.31;5113010;28;20027;-74
2021/01/22 05:21:09;;;;;;;6.20;2.08;;;;;;;7.82;100.00;97036.91;5112563;28;20019;-74
2021/01/22 05:23:37;;;;;;;2.22;1.00;;;;;;;7.85;100.00;97031.69;5110644;28;20031;-76
2021/01/22 05:26:07;;;;;;;3.25;1.40;;;;;;;7.92;100.00;97009.50;5111746;28;20486;-74
2021/01/22 05:28:43;;;;;;;2.50;0.95;;;;;;;7.96;99.64;97015.94;5113204;28;20040;-76
2021/01/22 05:31:10;;;;;;;1.48;1.38;;;;;;;7.90;100.00;97004.34;5111681;28;20489;-75
2021/01/22 05:33:36;;;;;;;3.08;1.13;;;;;;;7.96;100.00;97002.34;5112101;28;20164;-73
2021/01/22 05:36:24;;;;;;;1.50;1.30;;;;;;;7.85;100.00;96984.59;5112422;28;20495;-75
2021/01/22 05:38:54;;;;;;;2.47;1.20;;;;;;;7.81;100.00;96986.31;5116198;28;20032;-74
2021/01/22 05:41:25;;;;;;;5.75;1.52;;;;;;;7.90;100.00;97000.81;5114702;28;20027;-81
2021/01/22 05:43:51;;;;;;;4.50;1.52;;;;;;;7.79;99.88;96975.72;5113042;28;20485;-75
2021/01/22 05:46:18;;;;;;;2.00;1.38;;;;;;;7.83;100.00;97001.22;5113402;28;20097;-74
2021/01/22 05:48:44;;;;;;;5.90;1.40;;;;;;;7.79;100.00;96993.97;5111984;28;20060;-73
2021/01/22 05:51:11;;;;;;;5.22;1.60;;;;;;;7.70;100.00;96995.78;5112760;28;20035;-74
2021/01/22 05:53:45;;;;;;;2.70;1.75;;;;;;;7.71;100.00;96994.66;5112649;28;20503;-75
2021/01/22 05:56:13;;;;;;;6.95;2.67;;;;;;;7.66;100.00;96989.31;5111908;28;20028;-74
2021/01/22 05:58:41;;;;;;;2.75;1.90;;;;;;;7.51;100.00;96984.97;5112183;28;20500;-76
2021/01/22 06:01:22;;;;;;;4.57;3.28;;;;;;;7.41;100.00;96994.09;5110172;28;20065;-74
2021/01/22 06:03:52;;;;;;;7.88;3.65;;;;;;;7.32;100.00;96998.63;5097101;28;20035;-75
2021/01/22 06:06:30;;;;;;;8.93;4.57;;;;;;;7.14;100.00;96991.28;5102776;28;20107;-76
2021/01/22 06:08:57;;;;;;;6.03;4.43;;;;;;;7.07;100.00;96990.88;5103097;28;20157;-75
2021/01/22 06:11:28;;;;;;;8.25;4.22;;;;;;;7.07;100.00;97001.75;5103802;28;20039;-73
2021/01/22 06:13:57;;;;;;;12.20;6.30;;;;;;;7.00;100.00;96993.97;5101749;28;20027;-74
2021/01/22 06:16:26;;;;;;;8.45;5.50;;;;;;;6.99;100.00;96999.69;5101494;28;20031;-77
2021/01/22 06:19:06;;;;;;;8.30;5.20;;;;;;;6.97;100.00;96993.75;5099809;28;20055;-74
2021/01/22 06:21:38;;;;;;;12.18;6.72;;;;;;;6.96;100.00;96986.69;5099164;28;20059;-75
2021/01/22 06:24:05;;;;;;;7.78;5.18;;;;;;;6.85;100.00;96977.91;5102457;28;20059;-76
2021/01/22 06:26:39;;;;;;;12.57;5.78;;;;;;;6.83;100.00;96987.44;5097931;28;21680;-74
2021/01/22 06:29:07;;;;;;;13.63;6.55;;;;;;;6.84;100.00;96995.31;5096982;28;20046;-78
2021/01/22 06:31:33;;;;;;;10.55;5.70;;;;;;;6.82;100.00;96972.25;5099726;28;20036;-75
2021/01/22 06:34:00;;;;;;;10.73;6.43;;;;;;;6.79;100.00;96987.25;5101405;28;20032;-75
2021/01/22 06:36:26;;;;;;;12.55;6.47;;;;;;;6.69;100.00;96968.38;5102134;28;20028;-75
2021/01/22 06:38:54;;;;;;;10.18;5.60;;;;;;;6.69;100.00;96992.00;5101499;28;20024;-76
2021/01/22 06:41:25;;;;;;;7.28;5.97;;;;;;;6.68;100.00;96990.38;5099971;28;20019;-75
2021/01/22 06:43:52;;;;;;;15.85;7.25;;;;;;;6.67;100.00;96992.28;5100054;28;20028;-77
2021/01/22 06:46:19;;;;;;;78.40;39.20;;;;;;;6.52;100.00;96961.81;5099010;28;20052;-74
2021/01/22 06:49:04;;;;;;;10.55;7.82;;;;;;;6.59;100.00;96967.69;5091910;28;20031;-74
2021/01/22 06:51:35;;;;;;;11.93;7.32;;;;;;;6.44;100.00;96957.88;5093332;28;20062;-75
2021/01/22 06:54:07;;;;;;;12.07;7.97;;;;;;;6.56;100.00;96973.72;5091337;28;21564;-76
2021/01/22 06:56:34;;;;;;;13.65;7.15;;;;;;;6.55;100.00;96975.63;5100757;28;20058;-74
2021/01/22 06:59:20;;;;;;;8.80;6.45;;;;;;;6.58;100.00;96974.25;5095523;28;20059;-75
2021/01/22 07:01:47;;;;;;;14.07;6.93;;;;;;;6.47;100.00;96960.81;5107716;28;20039;-74
2021/01/22 07:04:31;;;;;;;22.15;8.23;;;;;;;6.56;100.00;96971.00;5116592;28;20711;-74
2021/01/22 07:07:02;;;;;;;10.02;7.18;;;;;;;6.54;100.00;96973.22;5099274;28;20031;-76
2021/01/22 07:09:48;;;;;;;8.13;6.45;;;;;;;6.51;100.00;96971.09;5099321;28;20032;-74
2021/01/22 07:12:15;;;;;;;13.40;7.38;;;;;;;6.45;100.00;96965.72;5098093;28;20032;-76
2021/01/22 07:14:48;;;;;;;10.32;7.95;;;;;;;6.42;100.00;96955.44;5094645;28;20028;-77
2021/01/22 07:17:47;;;;;;;11.88;5.97;;;;;;;6.56;100.00;96969.09;5096850;28;20087;-76
2021/01/22 07:20:12;;;;;;;9.00;6.15;;;;;;;6.54;100.00;96984.09;5100882;28;20530;-74
2021/01/22 07:22:55;;;;;;;9.15;6.38;;;;;;;6.58;100.00;96974.25;5093036;28;20043;-75
2021/01/22 07:25:55;;;;;;;10.70;5.43;;;;;;;6.62;100.00;96976.06;5098544;28;20078;-74
2021/01/22 07:28:22;;;;;;;9.27;6.25;;;;;;;6.58;100.00;96971.53;5096695;28;20043;-75
2021/01/22 07:30:48;;;;;;;8.27;5.82;;;;;;;6.55;100.00;96986.50;5108570;28;20035;-75
2021/01/22 07:33:26;;;;;;;9.05;5.32;;;;;;;6.60;100.00;96993.78;5107531;28;20061;-75
2021/01/22 07:36:14;;;;;;;10.68;6.05;;;;;;;6.52;100.00;96988.97;5109392;28;20066;-75
2021/01/22 07:38:41;;;;;;;11.18;6.55;;;;;;;6.53;100.00;96994.13;5109310;28;20080;-75
2021/01/22 07:41:08;;;;;;;10.52;6.13;;;;;;;6.51;100.00;96987.38;5107721;28;20937;-75
2021/01/22 07:43:36;;;;;;;13.15;6.10;;;;;;;6.54;100.00;96997.66;5107590;28;20020;-75
2021/01/22 07:46:09;;;;;;;10.60;6.22;;;;;;;6.50;100.00;96980.31;5100465;28;20035;-75
2021/01/22 07:48:36;;;;;;;9.10;4.68;;;;;;;6.48;100.00;96989.56;5102285;28;20119;-75
2021/01/22 07:51:30;;;;;;;9.65;5.00;;;;;;;6.62;100.00;97005.16;5100436;28;20036;-75
2021/01/22 07:53:57;;;;;;;11.10;4.57;;;;;;;6.62;100.00;96999.72;5112250;28;20135;-80
2021/01/22 07:56:31;;;;;;;7.68;5.22;;;;;;;6.61;100.00;97003.56;5111583;28;20015;-75
2021/01/22 07:58:56;;;;;;;5.85;4.88;;;;;;;6.63;100.00;97017.63;5110441;28;20510;-76
2021/01/22 08:01:24;;;;;;;5.85;4.63;;;;;;;6.61;100.00;97007.03;5113332;28;20019;-76
2021/01/22 08:03:50;;;;;;;13.00;5.22;;;;;;;6.69;100.00;97000.16;5113401;28;20123;-75
2021/01/22 08:06:15;;;;;;;6.75;4.65;;;;;;;6.72;100.00;97010.44;5113131;28;20532;-76
2021/01/22 08:08:41;;;;;;;7.85;5.15;;;;;;;6.74;100.00;97000.06;5112420;28;20039;-75
2021/01/22 08:11:25;;;;;;;8.55;5.05;;;;;;;6.67;100.00;97015.97;5112620;28;20041;-76
2021/01/22 08:13:52;;;;;;;20.52;11.57;;;;;;;6.71;100.00;97001.47;5094814;28;20024;-73
2021/01/22 08:16:31;;;;;;;17.63;9.65;;;;;;;6.67;100.00;96992.28;5102783;28;20122;-75
2021/01/22 08:18:56;;;;;;;7.35;5.40;;;;;;;6.61;100.00;96990.75;5093037;28;20040;-74
2021/01/22 08:21:22;;;;;;;8.18;5.65;;;;;;;6.75;100.00;97001.69;5091784;28;20051;-74
2021/01/22 08:23:48;;;;;;;11.10;6.80;;;;;;;6.76;100.00;97003.31;5112301;28;20031;-74
2021/01/22 08:26:14;;;;;;;6.90;5.70;;;;;;;6.74;100.00;97006.31;5113718;28;20134;-76
2021/01/22 08:28:41;;;;;;;8.52;6.63;;;;;;;6.78;100.00;97006.53;5112658;28;20028;-76
2021/01/22 08:31:16;;;;;;;13.65;7.68;;;;;;;6.68;100.00;96990.38;5115985;28;20496;-78
2021/01/22 08:33:42;;;;;;;9.68;6.72;;;;;;;6.84;100.00;97008.09;5117333;28;20034;-76
2021/01/22 08:36:08;;;;;;;10.23;8.25;;;;;;;6.83;100.00;97009.19;5116019;28;20567;-76
2021/01/22 08:38:35;;;;;;;11.20;7.15;;;;;;;6.88;100.00;96998.25;5113896;28;20032;-76
2021/01/22 08:41:00;;;;;;;7.47;6.68;;;;;;;6.88;100.00;96999.06;5116001;28;20084;-75
2021/01/22 08:43:26;;;;;;;11.38;5.65;;;;;;;6.91;100.00;97005.81;5115006;28;20027;-76
2021/01/22 08:46:06;;;;;;;9.15;5.47;;;;;;;6.88;100.00;96995.53;5103046;28;20035;-75
2021/01/22 08:48:32;;;;;;;9.50;6.60;;;;;;;6.91;100.00;96994.94;5093751;28;20024;-74
2021/01/22 08:50:59;;;;;;;9.45;6.55;;;;;;;7.02;100.00;96990.94;5097266;28;20050;-74
2021/01/22 08:53:24;;;;;;;13.07;8.02;;;;;;;7.00;100.00;96987.72;5111341;28;20023;-75
2021/01/22 08:55:50;;;;;;;11.55;7.70;;;;;;;7.03;100.00;96973.53;5101092;28;20031;-76
2021/01/22 08:58:15;;;;;;;12.27;6.57;;;;;;;7.06;100.00;96969.41;5100131;28;20110;-76
2021/01/22 09:00:41;;;;;;;13.05;6.82;;;;;;;7.12;100.00;96982.63;5097366;28;20024;-74
2021/01/22 09:03:20;;;;;;;10.43;7.25;;;;;;;7.14;100.00;96964.09;5098009;28;20044;-75
2021/01/22 09:05:53;;;;;;;10.57;6.47;;;;;;;7.40;100.00;96965.28;5099770;28;20027;-77
2021/01/22 09:08:20;;;;;;;11.27;6.30;;;;;;;7.58;100.00;96946.47;5101145;28;20104;-76
2021/01/22 09:10:46;;;;;;;9.55;6.72;;;;;;;7.78;100.00;96965.94;5100574;28;20028;-76
2021/01/22 09:13:15;;;;;;;8.90;5.80;;;;;;;7.97;100.00;96968.56;5097554;28;20039;-77
2021/01/22 09:15:42;;;;;;;10.27;6.30;;;;;;;8.16;100.00;96971.19;5099893;28;20072;-77
2021/01/22 09:18:23;;;;;;;11.23;6.32;;;;;;;8.42;100.00;96975.84;5100533;28;20036;-78
2021/01/22 09:20:58;;;;;;;11.32;6.03;;;;;;;8.64;100.00;96990.63;5094328;28;20039;-72
2021/01/22 09:23:24;;;;;;;7.97;5.68;;;;;;;8.76;100.00;96979.97;5097994;28;20399;-75
2021/01/22 09:25:49;;;;;;;12.05;5.78;;;;;;;9.05;99.38;96974.94;5098062;28;20050;-74
2021/01/22 09:28:14;;;;;;;17.05;8.00;;;;;;;9.42;98.38;96982.75;5105285;28;20023;-77
2021/01/22 09:30:40;;;;;;;10.35;5.57;;;;;;;9.74;96.00;96973.44;5108221;28;20476;-74
2021/01/22 09:33:05;;;;;;;7.22;5.22;;;;;;;9.94;96.54;96975.59;5109298;28;20024;-76
2021/01/22 09:35:31;;;;;;;8.20;6.15;;;;;;;9.99;95.25;96970.00;5111186;28;20026;-74
2021/01/22 09:37:57;;;;;;;5.88;4.60;;;;;;;10.03;95.23;96970.16;5109974;28;20028;-90
2021/01/22 09:40:23;;;;;;;11.45;3.38;;;;;;;10.13;95.73;96980.81;5100431;28;20024;-76
2021/01/22 09:42:49;;;;;;;6.07;2.42;;;;;;;10.13;96.73;96975.34;5088137;28;20044;-73
2021/01/22 09:45:16;;;;;;;9.93;5.25;;;;;;;9.98;95.80;96984.78;5109049;28;20501;-76
2021/01/22 09:47:42;;;;;;;8.10;5.68;;;;;;;10.16;94.04;96975.56;5089948;28;20024;-74
2021/01/22 09:50:09;;;;;;;16.20;5.97;;;;;;;10.52;92.76;96980.00;5089332;28;20396;-78
2021/01/22 09:52:37;;;;;;;13.30;6.57;;;;;;;10.57;92.32;96975.19;5090195;28;20051;-74
2021/01/22 09:55:08;;;;;;;12.82;5.95;;;;;;;10.37;93.40;96967.56;5090491;28;20034;-75
2021/01/22 09:57:33;;;;;;;11.55;5.40;;;;;;;10.20;93.71;96967.53;5092543;28;20032;-74
2021/01/22 09:59:59;;;;;;;9.98;6.97;;;;;;;10.45;94.17;96971.47;5090283;28;20024;-75
2021/01/22 10:02:24;;;;;;;13.35;3.53;;;;;;;11.71;87.92;96954.53;5088889;28;20023;-74
2021/01/22 10:04:50;;;;;;;2.83;2.25;;;;;;;12.92;81.93;96943.69;5090098;28;20099;-76
2021/01/22 10:07:15;;;;;;;3.88;2.08;;;;;;;13.98;77.33;96949.44;5095088;28;20117;-74
2021/01/22 10:09:40;;;;;;;5.40;1.65;;;;;;;14.65;73.91;96954.41;5108855;28;20042;-76
2021/01/22 10:12:08;;;;;;;3.10;1.60;;;;;;;15.22;72.39;96949.47;5110245;28;20035;-77
2021/01/22 10:14:34;;;;;;;3.08;1.40;;;;;;;15.60;69.36;96948.19;5103553;28;20063;-77
2021/01/22 10:16:59;;;;;;;2.78;1.58;;;;;;;15.24;69.82;96952.66;5095239;28;20020;-75
2021/01/22 10:19:24;;;;;;;7.43;1.83;;;;;;;14.10;72.80;96928.25;5088977;28;20374;-75
2021/01/22 10:21:50;;;;;;;2.22;1.30;;;;;;;13.68;76.88;96955.13;5089669;28;20031;-74
2021/01/22 10:24:16;;;;;;;6.28;2.00;;;;;;;13.37;78.50;96935.56;5089699;28;20073;-74
2021/01/22 10:26:41;;;;;;;4.30;1.00;;;;;;;14.41;72.21;96934.00;5090340;28;20160;-75
2021/01/22 10:29:07;;;;;;;3.45;1.08;;;;;;;14.05;73.12;96909.25;5088064;28;20043;-74
2021/01/22 10:31:32;;;;;;;2.97;1.00;;;;;;;13.61;74.54;96932.09;5089534;28;20051;-75
2021/01/22 10:33:59;;;;;;;5.88;1.17;;;;;;;13.94;73.87;96919.06;5092583;28;20415;-74
2021/01/22 10:36:24;;;;;;;1.83;0.80;;;;;;;14.14;72.93;96909.13;5109671;28;20016;-75
2021/01/22 10:38:50;;;;;;;2.55;1.20;;;;;;;14.33;72.24;96903.88;5109540;28;20076;-74
2021/01/22 10:41:15;;;;;;;5.63;1.20;;;;;;;14.34;71.81;96895.28;5109691;28;20051;-77
2021/01/22 10:43:41;;;;;;;10.18;1.52;;;;;;;14.70;69.96;96919.19;5110098;28;20023;-74
2021/01/22 10:46:07;;;;;;;7.07;2.05;;;;;;;13.64;73.55;96909.41;5098269;28;20051;-74
2021/01/22 10:48:32;;;;;;;1.95;0.47;;;;;;;13.30;75.10;96897.66;5089431;28;20059;-74
2021/01/22 10:50:58;;;;;;;3.65;1.23;;;;;;;12.99;77.81;96911.03;5088208;28;20118;-75
2021/01/22 10:53:24;;;;;;;1.65;1.27;;;;;;;12.88;77.63;96890.59;5089888;28;20085;-74
2021/01/22 10:55:50;;;;;;;7.50;1.48;;;;;;;12.80;79.14;96899.72;5109766;28;20054;-76
2021/01/22 10:58:15;;;;;;;4.00;1.80;;;;;;;12.62;80.63;96879.06;5108547;28;20419;-76
2021/01/22 11:00:41;;;;;;;2.92;0.85;;;;;;;12.65;80.32;96883.88;5109408;28;20024;-74
2021/01/22 11:03:06;;;;;;;5.43;1.23;;;;;;;12.46;80.49;96889.00;5109163;28;20031;-74
2021/01/22 11:05:32;;;;;;;2.72;1.05;;;;;;;12.17;81.38;96878.88;5109780;28;20024;-76
2021/01/22 11:07:59;;;;;;;1.98;1.30;;;;;;;12.00;82.16;96870.72;5108247;28;20015;-75
2021/01/22 11:10:25;;;;;;;1.63;0.70;;;;;;;12.28;81.73;96880.06;5104238;28;20031;-74
2021/01/22 11:12:52;;;;;;;2.30;1.30;;;;;;;12.36;81.22;96881.97;5088893;28;20051;-77
2021/01/22 11:15:17;;;;;;;3.60;1.30;;;;;;;12.37;81.02;96878.09;5095162;28;20153;-75
2021/01/22 11:17:43;;;;;;;1.33;1.00;;;;;;;12.38;82.01;96873.41;5093328;28;20476;-75
2021/01/22 11:20:12;;;;;;;3.97;2.33;;;;;;;12.27;82.04;96867.53;5089322;28;20381;-75
2021/01/22 11:22:38;;;;;;;15.35;10.02;;;;;;;12.51;81.66;96864.13;5105112;28;20135;-75
2021/01/22 11:25:04;;;;;;;2.88;1.30;;;;;;;13.02;79.45;96860.94;5101505;27;20123;-75
2021/01/22 11:27:29;;;;;;;1.52;1.38;;;;;;;13.21;77.69;96853.03;5101072;28;20032;-76
2021/01/22 11:29:55;;;;;;;3.03;1.10;;;;;;;13.52;76.19;96848.94;5104550;28;20116;-78
2021/01/22 11:32:21;;;;;;;1.88;1.00;;;;;;;13.20;77.24;96837.69;5102516;28;20428;-74
2021/01/22 11:34:46;;;;;;;2.08;0.90;;;;;;;13.51;76.57;96847.34;5090142;28;20391;-75